createdAt,value
2023-01-05T00:02:37.229Z,1.60
2023-01-05T00:05:42.427Z,1.40
2023-01-05T00:08:47.783Z,1.27
2023-01-05T00:12:25.123Z,1.30
2023-01-05T00:15:47.624Z,1.50
2023-01-05T00:19:11.788Z,1.30
2023-01-05T00:22:33.665Z,1.30
2023-01-05T00:25:39.969Z,1.20
2023-01-05T00:28:45.098Z,1.50
2023-01-05T00:31:50.329Z,1.50
2023-01-05T00:34:58.799Z,1.70
2023-01-05T00:38:03.943Z,1.30
2023-01-05T00:41:09.079Z,1.20
2023-01-05T00:44:14.690Z,1.40
2023-01-05T00:47:20.050Z,1.60
2023-01-05T00:50:26.520Z,1.70
2023-01-05T00:53:31.887Z,1.60
2023-01-05T00:56:38.214Z,1.80
2023-01-05T00:59:44.134Z,1.80
2023-01-05T01:02:49.444Z,1.60
2023-01-05T01:06:00.129Z,1.50
2023-01-05T01:09:05.570Z,1.40
2023-01-05T01:12:13.170Z,1.40
2023-01-05T01:15:18.238Z,1.40
2023-01-05T01:18:23.517Z,1.50
2023-01-05T01:21:30.085Z,1.77
2023-01-05T01:24:35.481Z,1.50
2023-01-05T01:27:40.564Z,1.43
2023-01-05T01:30:45.676Z,1.73
2023-01-05T01:33:50.940Z,1.63
2023-01-05T01:40:15.064Z,1.60
2023-01-05T01:43:22.099Z,1.47
2023-01-05T01:46:28.404Z,1.50
2023-01-05T01:49:33.951Z,1.57
2023-01-05T01:52:45.922Z,1.53
2023-01-05T01:55:51.788Z,1.50
2023-01-05T01:58:57.181Z,1.60
2023-01-05T02:02:03.633Z,1.40
2023-01-05T02:05:11.731Z,1.50
2023-01-05T02:08:25.510Z,1.60
2023-01-05T02:11:39.866Z,1.60
2023-01-05T02:15:00.446Z,1.43
2023-01-05T02:18:16.789Z,1.70
2023-01-05T02:21:28.598Z,1.30
2023-01-05T02:24:58.095Z,1.73
2023-01-05T02:28:14.911Z,1.77
2023-01-05T02:31:24.089Z,1.67
2023-01-05T02:34:34.608Z,1.37
2023-01-05T02:37:45.422Z,1.40
2023-01-05T02:40:53.319Z,1.20
2023-01-05T02:43:59.101Z,1.30
2023-01-05T02:47:07.472Z,1.30
2023-01-05T02:50:18.695Z,1.30
2023-01-05T02:53:25.628Z,1.30
2023-01-05T02:56:35.650Z,1.20
2023-01-05T02:59:43.152Z,1.40
2023-01-05T03:02:51.184Z,1.40
2023-01-05T03:05:59.643Z,1.33
2023-01-05T03:09:08.002Z,1.40
2023-01-05T03:12:40.023Z,1.10
2023-01-05T03:15:48.714Z,1.40
2023-01-05T03:19:13.908Z,1.20
2023-01-05T03:22:38.907Z,1.57
2023-01-05T03:26:03.050Z,1.10
2023-01-05T03:29:27.851Z,1.47
2023-01-05T03:32:53.876Z,1.40
2023-01-05T03:36:01.559Z,1.50
2023-01-05T03:39:07.267Z,1.20
2023-01-05T03:42:14.364Z,0.90
2023-01-05T03:45:20.351Z,1.10
2023-01-05T03:48:29.093Z,1.80
2023-01-05T03:51:41.429Z,1.47
2023-01-05T03:54:47.867Z,1.40
2023-01-05T03:57:53.313Z,1.47
2023-01-05T04:00:59.466Z,1.70
2023-01-05T04:04:05.613Z,1.57
2023-01-05T04:07:13.538Z,1.73
2023-01-05T04:10:18.931Z,1.60
2023-01-05T04:13:25.125Z,1.60
2023-01-05T04:16:33.697Z,1.50
2023-01-05T04:19:45.554Z,1.90
2023-01-05T04:22:53.361Z,1.80
2023-01-05T04:26:00.881Z,1.23
2023-01-05T04:29:06.200Z,2.10
2023-01-05T04:32:12.786Z,2.07
2023-01-05T04:35:18.065Z,1.90
2023-01-05T04:38:25.662Z,1.70
2023-01-05T04:41:32.521Z,1.87
2023-01-05T04:44:37.773Z,2.13
2023-01-05T04:47:44.664Z,1.80
2023-01-05T04:50:55.647Z,1.93
2023-01-05T04:54:08.763Z,1.80
2023-01-05T04:57:14.499Z,1.60
2023-01-05T05:00:20.028Z,1.60
2023-01-05T05:03:33.009Z,1.50
2023-01-05T05:06:39.563Z,1.77
2023-01-05T05:09:47.149Z,1.80
2023-01-05T05:12:53.769Z,1.70
2023-01-05T05:15:58.861Z,1.13
2023-01-05T05:19:05.787Z,1.67
2023-01-05T05:22:11.752Z,1.27
2023-01-05T05:25:18.621Z,1.40
2023-01-05T05:28:28.826Z,1.63
2023-01-05T05:31:33.955Z,1.73
2023-01-05T05:34:39.170Z,1.77
2023-01-05T05:37:44.503Z,1.37
2023-01-05T05:40:51.958Z,1.90
2023-01-05T05:44:02.526Z,1.80
2023-01-05T05:47:07.844Z,1.47
2023-01-05T05:50:12.972Z,1.80
2023-01-05T05:53:18.386Z,1.60
2023-01-05T05:56:25.192Z,1.60
2023-01-05T05:59:30.990Z,1.80
2023-01-05T06:02:36.354Z,1.50
2023-01-05T06:05:41.480Z,1.70
2023-01-05T06:08:46.547Z,2.10
2023-01-05T06:11:53.262Z,2.07
2023-01-05T06:14:58.314Z,2.10
2023-01-05T06:18:03.334Z,2.40
2023-01-05T06:21:09.137Z,2.40
2023-01-05T06:24:14.320Z,2.73
2023-01-05T06:27:20.772Z,3.03
2023-01-05T06:30:25.876Z,2.17
2023-01-05T06:33:30.991Z,2.53
2023-01-05T06:36:36.312Z,2.40
2023-01-05T06:39:41.459Z,2.30
2023-01-05T06:42:47.975Z,2.20
2023-01-05T06:45:53.152Z,2.60
2023-01-05T06:48:58.777Z,2.47
2023-01-05T06:52:03.844Z,2.17
2023-01-05T06:55:10.118Z,3.50
2023-01-05T06:58:16.639Z,2.50
2023-01-05T07:01:21.965Z,2.77
2023-01-05T07:04:27.362Z,2.23
2023-01-05T07:07:32.476Z,2.87
2023-01-05T07:10:37.621Z,1.83
2023-01-05T07:13:44.755Z,2.20
2023-01-05T07:16:49.937Z,2.63
2023-01-05T07:19:55.308Z,2.67
2023-01-05T07:23:00.585Z,2.20
2023-01-05T07:26:06.063Z,2.90
2023-01-05T07:29:13.537Z,2.47
2023-01-05T07:32:18.617Z,2.40
2023-01-05T07:35:23.827Z,2.20
2023-01-05T07:38:29.053Z,2.73
2023-01-05T07:41:34.130Z,2.40
2023-01-05T07:44:40.649Z,2.57
2023-01-05T07:47:45.733Z,2.17
2023-01-05T07:50:51.144Z,2.53
2023-01-05T07:53:57.710Z,1.90
2023-01-05T07:57:02.949Z,2.00
2023-01-05T08:00:11.890Z,1.83
2023-01-05T08:03:17.286Z,2.27
2023-01-05T08:06:22.786Z,2.37
2023-01-05T08:09:45.482Z,2.40
2023-01-05T08:13:08.346Z,2.50
2023-01-05T08:16:14.986Z,1.70
2023-01-05T08:19:20.623Z,2.13
2023-01-05T08:22:25.719Z,2.57
2023-01-05T08:25:30.928Z,2.40
2023-01-05T08:28:37.425Z,2.27
2023-01-05T08:31:44.060Z,2.17
2023-01-05T08:34:53.648Z,1.97
2023-01-05T08:38:00.658Z,2.57
2023-01-05T08:41:06.384Z,2.53
2023-01-05T08:44:14.469Z,2.40
2023-01-05T08:47:26.532Z,2.33
2023-01-05T08:50:33.355Z,2.80
2023-01-05T08:53:38.520Z,2.67
2023-01-05T08:56:44.330Z,2.73
2023-01-05T08:59:49.420Z,2.77
2023-01-05T09:02:56.361Z,2.33
2023-01-05T09:06:03.468Z,2.80
2023-01-05T09:09:08.724Z,2.97
2023-01-05T09:12:13.899Z,3.03
2023-01-05T09:15:19.100Z,1.93
2023-01-05T09:18:25.686Z,2.50
2023-01-05T09:21:31.271Z,2.40
2023-01-05T09:24:37.532Z,3.00
2023-01-05T09:27:43.017Z,1.77
2023-01-05T09:30:50.748Z,2.63
2023-01-05T09:33:58.787Z,2.53
2023-01-05T09:37:04.007Z,1.17
2023-01-05T09:40:10.383Z,2.40
2023-01-05T09:43:21.617Z,2.50
2023-01-05T09:46:30.773Z,2.30
2023-01-05T09:49:37.444Z,2.83
2023-01-05T09:52:42.736Z,2.07
2023-01-05T09:55:49.617Z,2.37
2023-01-05T09:58:55.789Z,2.83
2023-01-05T10:02:03.201Z,2.53
2023-01-05T10:05:10.689Z,2.10
2023-01-05T10:08:22.793Z,2.87
2023-01-05T10:11:52.981Z,2.07
2023-01-05T10:15:03.346Z,2.53
2023-01-05T10:18:14.793Z,2.53
2023-01-05T10:21:31.499Z,1.90
2023-01-05T10:24:44.732Z,3.17
2023-01-05T10:27:56.869Z,2.83
2023-01-05T10:31:04.015Z,2.67
2023-01-05T10:34:19.215Z,2.80
2023-01-05T10:37:45.646Z,2.57
2023-01-05T10:40:58.055Z,2.87
2023-01-05T10:44:35.246Z,2.13
2023-01-05T10:47:41.381Z,2.43
2023-01-05T10:50:47.764Z,2.83
2023-01-05T10:53:55.619Z,2.37
2023-01-05T10:57:28.860Z,2.60
2023-01-05T11:00:44.461Z,2.70
2023-01-05T11:04:28.994Z,3.00
2023-01-05T11:07:16.217Z,2.60
2023-01-05T11:10:29.665Z,2.60
2023-01-05T11:13:36.333Z,2.27
2023-01-05T11:16:41.659Z,2.83
2023-01-05T11:19:49.803Z,2.67
2023-01-05T11:22:55.124Z,2.97
2023-01-05T11:26:18.923Z,2.80
2023-01-05T11:29:24.388Z,2.73
2023-01-05T11:32:29.601Z,2.77
2023-01-05T11:35:38.154Z,2.53
2023-01-05T11:38:43.219Z,2.73
2023-01-05T11:41:49.837Z,2.80
2023-01-05T11:44:56.387Z,2.53
2023-01-05T11:48:03.397Z,2.73
2023-01-05T11:51:08.495Z,2.87
2023-01-05T11:54:35.374Z,2.60
2023-01-05T11:57:42.287Z,2.70
2023-01-05T12:01:13.759Z,2.00
2023-01-05T12:04:32.568Z,2.73
2023-01-05T12:07:38.818Z,1.33
2023-01-05T12:10:55.595Z,2.60
2023-01-05T12:14:18.052Z,2.83
2023-01-05T12:17:27.679Z,2.20
2023-01-05T12:20:57.042Z,2.40
2023-01-05T12:24:30.452Z,3.00
2023-01-05T12:27:47.026Z,2.27
2023-01-05T12:34:36.837Z,2.97
2023-01-05T12:37:51.666Z,3.37
2023-01-05T12:41:16.462Z,2.70
2023-01-05T12:44:49.982Z,3.30
2023-01-05T12:48:00.660Z,2.67
2023-01-05T12:51:11.173Z,2.73
2023-01-05T12:54:28.918Z,2.80
2023-01-05T12:57:38.440Z,3.03
2023-01-05T13:00:50.245Z,2.63
2023-01-05T13:04:00.447Z,2.40
2023-01-05T13:07:09.635Z,2.53
2023-01-05T13:10:21.294Z,3.03
2023-01-05T13:13:32.061Z,3.23
2023-01-05T13:16:41.132Z,2.40
2023-01-05T13:19:50.052Z,3.27
2023-01-05T13:23:00.169Z,3.03
2023-01-05T13:26:08.040Z,2.30
2023-01-05T13:29:22.532Z,3.23
2023-01-05T13:32:41.173Z,2.63
2023-01-05T13:35:57.913Z,2.93
2023-01-05T13:39:30.233Z,2.50
2023-01-05T13:42:44.729Z,2.70
2023-01-05T13:46:20.295Z,3.03
2023-01-05T13:49:44.976Z,2.87
2023-01-05T13:53:06.136Z,2.33
2023-01-05T13:56:17.564Z,3.00
2023-01-05T13:59:35.346Z,3.53
2023-01-05T14:02:47.792Z,2.57
2023-01-05T14:05:54.949Z,3.10
2023-01-05T14:12:44.887Z,2.50
2023-01-05T14:15:50.004Z,2.87
2023-01-05T14:19:11.828Z,2.83
2023-01-05T14:22:44.110Z,3.27
2023-01-05T14:25:53.957Z,2.73
2023-01-05T14:28:59.520Z,3.00
2023-01-05T14:32:07.794Z,3.00
2023-01-05T14:35:23.859Z,3.37
2023-01-05T14:38:29.322Z,2.77
2023-01-05T14:41:36.218Z,3.00
2023-01-05T14:44:51.599Z,3.00
2023-01-05T14:47:58.980Z,3.10
2023-01-05T14:51:29.655Z,3.30
2023-01-05T14:55:12.671Z,2.67
2023-01-05T14:58:50.190Z,3.10
2023-01-05T15:01:57.412Z,3.10
2023-01-05T15:05:07.572Z,3.53
2023-01-05T15:08:28.169Z,3.47
2023-01-05T15:11:52.318Z,2.63
2023-01-05T15:15:26.873Z,2.77
2023-01-05T15:19:06.728Z,2.83
2023-01-05T15:22:37.598Z,3.20
2023-01-05T15:26:08.105Z,13.07
2023-01-05T15:29:46.309Z,5.47
2023-01-05T15:33:01.639Z,10.00
2023-01-05T15:36:08.112Z,7.13
2023-01-05T15:39:25.657Z,13.10
2023-01-05T15:42:36.578Z,7.17
2023-01-05T15:45:43.476Z,7.67
2023-01-05T15:48:53.295Z,4.37
2023-01-05T15:51:59.011Z,2.93
2023-01-05T15:55:12.393Z,3.30
2023-01-05T15:58:17.877Z,3.13
2023-01-05T16:01:23.233Z,2.90
2023-01-05T16:04:30.236Z,3.50
2023-01-05T16:07:35.342Z,3.67
2023-01-05T16:10:46.149Z,3.37
2023-01-05T16:13:54.246Z,3.33
2023-01-05T16:17:05.302Z,3.20
2023-01-05T16:20:16.256Z,3.10
2023-01-05T16:23:25.433Z,3.90
2023-01-05T16:26:30.921Z,3.30
2023-01-05T16:29:39.343Z,2.80
2023-01-05T16:32:45.495Z,3.40
2023-01-05T16:35:53.033Z,3.00
2023-01-05T16:39:13.721Z,6.40
2023-01-05T16:42:38.207Z,3.37
2023-01-05T16:45:43.399Z,3.50
2023-01-05T16:48:50.782Z,3.53
2023-01-05T16:51:59.767Z,3.00
2023-01-05T16:55:28.368Z,3.17
2023-01-05T16:58:38.538Z,4.20
2023-01-05T17:01:45.758Z,3.37
2023-01-05T17:04:51.134Z,3.20
2023-01-05T17:08:05.356Z,4.17
2023-01-05T17:11:12.894Z,3.13
2023-01-05T17:14:18.763Z,3.00
2023-01-05T17:17:24.952Z,3.43
2023-01-05T17:20:33.304Z,3.40
2023-01-05T17:23:46.861Z,3.70
2023-01-05T17:26:52.052Z,3.57
2023-01-05T17:29:57.333Z,2.80
2023-01-05T17:33:03.092Z,3.17
2023-01-05T17:36:08.989Z,3.40
2023-01-05T17:39:16.764Z,3.37
2023-01-05T17:42:39.624Z,2.90
2023-01-05T17:45:45.918Z,3.53
2023-01-05T17:48:51.320Z,3.43
2023-01-05T17:51:56.478Z,2.90
2023-01-05T17:55:03.135Z,3.23
2023-01-05T17:58:08.440Z,3.07
2023-01-05T18:01:13.923Z,2.80
2023-01-05T18:04:19.146Z,2.93
2023-01-05T18:07:24.479Z,2.60
2023-01-05T18:10:31.146Z,2.53
2023-01-05T18:13:36.789Z,2.50
2023-01-05T18:16:46.374Z,2.50
2023-01-05T18:19:52.215Z,2.33
2023-01-05T18:22:57.293Z,2.33
2023-01-05T18:26:06.851Z,2.70
2023-01-05T18:29:11.951Z,2.07
2023-01-05T18:32:17.214Z,2.10
2023-01-05T18:35:22.421Z,2.40
2023-01-05T18:38:27.576Z,2.20
2023-01-05T18:41:34.316Z,2.93
2023-01-05T18:44:39.838Z,2.20
2023-01-05T18:47:44.950Z,2.27
2023-01-05T18:50:51.345Z,2.53
2023-01-05T18:53:56.713Z,2.10
2023-01-05T18:57:03.714Z,2.07
2023-01-05T19:00:12.090Z,1.93
2023-01-05T19:03:17.352Z,2.00
2023-01-05T19:06:24.401Z,1.90
2023-01-05T19:09:29.673Z,2.10
2023-01-05T19:12:36.233Z,2.30
2023-01-05T19:15:41.396Z,1.90
2023-01-05T19:18:51.116Z,1.90
2023-01-05T19:21:56.349Z,2.00
2023-01-05T19:25:01.812Z,2.60
2023-01-05T19:28:09.041Z,2.27
2023-01-05T19:31:15.479Z,2.50
2023-01-05T19:34:20.838Z,2.90
2023-01-05T19:37:26.154Z,2.70
2023-01-05T19:40:31.772Z,2.50
2023-01-05T19:43:41.165Z,2.80
2023-01-05T19:46:49.359Z,2.67
2023-01-05T19:49:54.634Z,2.43
2023-01-05T19:53:00.399Z,3.17
2023-01-05T19:56:06.055Z,3.20
2023-01-05T19:59:17.438Z,2.57
2023-01-05T20:02:22.596Z,2.97
2023-01-05T20:05:27.851Z,2.90
2023-01-05T20:08:34.896Z,2.70
2023-01-05T20:11:44.262Z,2.87
2023-01-05T20:14:51.114Z,2.57
2023-01-05T20:17:56.326Z,2.67
2023-01-05T20:21:01.810Z,3.33
2023-01-05T20:24:12.559Z,2.87
2023-01-05T20:27:19.117Z,2.63
2023-01-05T20:30:26.002Z,2.47
2023-01-05T20:33:33.694Z,3.10
2023-01-05T20:36:39.249Z,2.70
2023-01-05T20:39:44.888Z,2.70
2023-01-05T20:42:50.582Z,2.47
2023-01-05T20:45:57.387Z,2.73
2023-01-05T20:49:03.607Z,2.97
2023-01-05T20:52:11.774Z,3.40
2023-01-05T20:55:18.881Z,2.60
2023-01-05T20:58:24.431Z,2.57
2023-01-05T21:01:31.111Z,3.17
2023-01-05T21:04:36.331Z,2.87
2023-01-05T21:07:43.881Z,2.50
2023-01-05T21:10:54.319Z,2.43
2023-01-05T21:14:00.383Z,2.63
2023-01-05T21:17:06.977Z,2.47
2023-01-05T21:20:12.449Z,2.10
2023-01-05T21:23:17.778Z,2.20
2023-01-05T21:26:23.890Z,2.50
2023-01-05T21:29:29.028Z,2.13
2023-01-05T21:32:35.899Z,2.43
2023-01-05T21:35:41.243Z,2.30
2023-01-05T21:39:00.192Z,2.50
2023-01-05T21:42:25.900Z,2.03
2023-01-05T21:45:33.864Z,2.37
2023-01-05T21:48:41.005Z,2.27
2023-01-05T21:52:03.890Z,2.53
2023-01-05T21:55:28.319Z,2.27
2023-01-05T21:58:33.402Z,2.50
2023-01-05T22:01:40.166Z,2.23
2023-01-05T22:04:46.909Z,2.40
2023-01-05T22:07:52.452Z,2.60
2023-01-05T22:10:58.438Z,2.00
2023-01-05T22:14:03.671Z,2.33
2023-01-05T22:17:09.974Z,2.30
2023-01-05T22:20:16.971Z,2.60
2023-01-05T22:23:22.241Z,2.73
2023-01-05T22:26:27.433Z,2.27
2023-01-05T22:29:32.980Z,2.10
2023-01-05T22:32:38.202Z,2.37
2023-01-05T22:35:45.200Z,2.40
2023-01-05T22:38:51.729Z,2.20
2023-01-05T22:41:56.873Z,2.17
2023-01-05T22:45:01.986Z,2.33
2023-01-05T22:48:08.072Z,2.57
2023-01-05T22:51:16.576Z,2.10
2023-01-05T22:54:21.833Z,2.40
2023-01-05T22:57:26.885Z,2.07
2023-01-05T23:00:31.947Z,2.40
2023-01-05T23:03:37.518Z,2.90
2023-01-05T23:06:44.795Z,2.57
2023-01-05T23:09:49.890Z,1.97
2023-01-05T23:12:55.281Z,2.17
2023-01-05T23:16:00.529Z,2.50
2023-01-05T23:19:06.988Z,2.43
2023-01-05T23:22:14.635Z,2.13
2023-01-05T23:25:19.985Z,2.27
2023-01-05T23:28:26.471Z,2.10
2023-01-05T23:31:31.913Z,2.23
2023-01-05T23:34:38.556Z,1.97
2023-01-05T23:37:46.260Z,2.10
2023-01-05T23:40:53.734Z,1.87
2023-01-05T23:43:58.904Z,2.20
2023-01-05T23:47:04.115Z,2.00
2023-01-05T23:50:10.093Z,2.20
2023-01-05T23:53:19.490Z,2.00
2023-01-05T23:56:26.169Z,2.40
2023-01-05T23:59:31.408Z,2.17
